Time;durP1;ratioP1;P1;durP2;ratioP2;P2;SDS_P1;SDS_P2;PMS_P1;PMS_P2;Temp;Humidity;BMP_temperature;BMP_pressure;BME280_temperature;BME280_humidity;BME280_pressure;Samples;Min_cycle;Max_cycle;Signal;HPM_P1;HPM_P2
2023/03/20 08:36:38;;;;;;;7.97;1.58;;;;;;;;;;5082581;27;20486;-48
2023/03/20 08:39:07;;;;;;;6.07;1.67;;;;;;;;;;5062556;28;20067;-48
2023/03/20 08:41:34;;;;;;;8.23;1.90;;;;;;;;;;5046507;28;20753;-48
2023/03/20 08:44:02;;;;;;;6.57;1.90;;;;;;;;;;5084395;28;20036;-48
2023/03/20 08:46:31;;;;;;;5.22;0.98;;;;;;;;;;5060926;28;20051;-48
2023/03/20 08:48:59;;;;;;;6.70;1.77;;;;;;;;;;5070521;28;20388;-48
2023/03/20 08:51:27;;;;;;;6.28;1.65;;;;;;;;;;5060084;28;20322;-47
2023/03/20 08:53:56;;;;;;;6.45;1.83;;;;;;;;;;5027081;28;20055;-47
2023/03/20 08:56:24;;;;;;;9.77;1.57;;;;;;;;;;5040422;28;20046;-48
2023/03/20 08:58:54;;;;;;;8.23;1.65;;;;;;;;;;5048335;28;21092;-47
2023/03/20 09:01:22;;;;;;;8.13;1.70;;;;;;;;;;5038290;28;20048;-49
2023/03/20 09:03:53;;;;;;;5.83;1.60;;;;;;;;;;4346453;28;9999919;-49
2023/03/20 09:06:21;;;;;;;5.72;1.60;;;;;;;;;;5046792;28;20055;-52
2023/03/20 09:08:49;;;;;;;6.32;1.40;;;;;;;;;;5031520;28;20563;-50
2023/03/20 09:11:18;;;;;;;6.53;1.80;;;;;;;;;;5051745;28;20771;-47
2023/03/20 09:13:54;;;;;;;5.55;1.90;;;;;;;;;;5023664;28;20904;-50
2023/03/20 09:16:21;;;;;;;4.93;1.23;;;;;;;;;;5047713;28;20059;-49
2023/03/20 09:18:51;;;;;;;5.30;1.90;;;;;;;;;;5039604;28;20067;-49
2023/03/20 09:21:21;;;;;;;5.10;1.48;;;;;;;;;;4692167;28;10000173;-49
2023/03/20 09:23:50;;;;;;;5.30;1.33;;;;;;;;;;5027798;28;20127;-49
2023/03/20 09:26:19;;;;;;;5.97;1.40;;;;;;;;;;5015483;28;20086;-48
2023/03/20 09:28:46;;;;;;;6.78;1.70;;;;;;;;;;5013921;28;20120;-49
2023/03/20 09:31:14;;;;;;;5.87;1.10;;;;;;;;;;5013417;28;20132;-47
2023/03/20 09:33:42;;;;;;;7.80;1.40;;;;;;;;;;5023672;28;20048;-52
2023/03/20 09:36:10;;;;;;;4.50;1.25;;;;;;;;;;5014871;28;20091;-51
2023/03/20 09:38:40;;;;;;;6.25;1.42;;;;;;;;;;5002951;28;20117;-51
2023/03/20 09:41:14;;;;;;;5.18;1.00;;;;;;;;;;5004947;28;20501;-49
2023/03/20 09:43:51;;;;;;;7.43;1.60;;;;;;;;;;5008736;28;20052;-47
2023/03/20 09:46:24;;;;;;;6.43;1.45;;;;;;;;;;4996440;28;20045;-50
2023/03/20 09:48:59;;;;;;;5.75;1.50;;;;;;;;;;5001415;28;20919;-46
2023/03/20 09:51:31;;;;;;;5.05;1.23;;;;;;;;;;5007250;28;20041;-49
2023/03/20 09:54:02;;;;;;;3.70;0.98;;;;;;;;;;4997344;28;20732;-50
2023/03/20 09:56:31;;;;;;;4.50;1.20;;;;;;;;;;5003378;28;20103;-49
2023/03/20 09:59:01;;;;;;;4.72;1.08;;;;;;;;;;5001041;28;20822;-47
2023/03/20 10:01:31;;;;;;;5.55;1.30;;;;;;;;;;4995872;28;20230;-48
2023/03/20 10:04:00;;;;;;;6.20;1.00;;;;;;;;;;4996662;28;20049;-49
2023/03/20 10:06:28;;;;;;;3.80;0.80;;;;;;;;;;5010758;28;20045;-47
2023/03/20 10:08:57;;;;;;;4.40;1.03;;;;;;;;;;4986173;28;20123;-49
2023/03/20 10:11:35;;;;;;;2.38;0.47;;;;;;;;;;5000852;28;20041;-48
2023/03/20 10:14:11;;;;;;;3.17;0.68;;;;;;;;;;4984477;28;20207;-47
2023/03/20 10:16:49;;;;;;;4.20;0.90;;;;;;;;;;5010293;28;20819;-46
2023/03/20 10:19:21;;;;;;;4.03;0.93;;;;;;;;;;5004598;28;20048;-49
2023/03/20 10:21:50;;;;;;;3.53;0.90;;;;;;;;;;4999624;28;20984;-48
2023/03/20 10:24:22;;;;;;;3.42;0.80;;;;;;;;;;5008334;28;20073;-50
2023/03/20 10:26:51;;;;;;;3.30;0.80;;;;;;;;;;5007174;28;20048;-47
2023/03/20 10:29:24;;;;;;;3.20;0.68;;;;;;;;;;4999869;28;20045;-47
2023/03/20 10:31:55;;;;;;;3.55;0.85;;;;;;;;;;4989711;28;20036;-47
2023/03/20 10:34:30;;;;;;;3.63;0.60;;;;;;;;;;5006366;28;20041;-50
2023/03/20 10:37:04;;;;;;;3.70;0.52;;;;;;;;;;5003456;28;20487;-48
2023/03/20 10:39:44;;;;;;;3.30;0.65;;;;;;;;;;4998140;28;20405;-52
2023/03/20 10:42:15;;;;;;;2.67;0.50;;;;;;;;;;5011681;28;20054;-50
2023/03/20 10:44:46;;;;;;;3.35;0.80;;;;;;;;;;4988483;28;20107;-49
2023/03/20 10:47:16;;;;;;;3.30;0.80;;;;;;;;;;5003173;28;20049;-47
2023/03/20 10:49:46;;;;;;;3.22;0.80;;;;;;;;;;4991982;28;20040;-49
2023/03/20 10:52:17;;;;;;;2.83;0.57;;;;;;;;;;4997546;28;20052;-49
2023/03/20 10:54:46;;;;;;;3.53;0.50;;;;;;;;;;5007412;28;20491;-48
2023/03/20 10:57:16;;;;;;;3.20;0.75;;;;;;;;;;4990176;28;20125;-49
2023/03/20 10:59:48;;;;;;;3.50;0.80;;;;;;;;;;5018422;28;20037;-46
2023/03/20 11:02:17;;;;;;;3.20;0.60;;;;;;;;;;4996440;28;20620;-50
2023/03/20 11:04:45;;;;;;;4.10;0.95;;;;;;;;;;5004403;28;20099;-50
2023/03/20 11:07:16;;;;;;;2.17;0.40;;;;;;;;;;5002489;28;20131;-48
2023/03/20 11:09:44;;;;;;;3.60;0.60;;;;;;;;;;4985815;28;20556;-50
2023/03/20 11:12:16;;;;;;;2.93;0.50;;;;;;;;;;5005114;28;20629;-49
2023/03/20 11:14:45;;;;;;;3.05;0.50;;;;;;;;;;4994600;28;20029;-49
2023/03/20 11:17:13;;;;;;;2.65;0.47;;;;;;;;;;5003996;28;20052;-51
2023/03/20 11:19:42;;;;;;;2.60;0.60;;;;;;;;;;5004949;28;20094;-53
2023/03/20 11:22:25;;;;;;;3.36;0.82;;;;;;;;;;4961426;28;10000799;-51
2023/03/20 11:24:54;;;;;;;3.80;0.82;;;;;;;;;;5002189;28;20889;-48
2023/03/20 11:27:24;;;;;;;2.70;0.70;;;;;;;;;;5003472;28;20057;-50
2023/03/20 11:29:54;;;;;;;3.47;0.77;;;;;;;;;;5003663;28;20055;-50
2023/03/20 11:32:26;;;;;;;3.47;1.00;;;;;;;;;;5006626;28;20072;-48
2023/03/20 11:34:56;;;;;;;2.83;0.70;;;;;;;;;;4999696;28;21373;-53
2023/03/20 11:37:25;;;;;;;4.93;0.88;;;;;;;;;;4993482;28;20037;-51
2023/03/20 11:39:57;;;;;;;4.70;0.82;;;;;;;;;;4996090;28;20040;-48
2023/03/20 11:42:25;;;;;;;3.70;0.88;;;;;;;;;;5006196;28;20425;-49
2023/03/20 11:44:58;;;;;;;3.35;0.82;;;;;;;;;;5000926;28;20555;-48
2023/03/20 11:47:27;;;;;;;3.40;0.83;;;;;;;;;;4993646;28;20063;-49
2023/03/20 11:49:58;;;;;;;3.58;1.00;;;;;;;;;;5037133;28;20045;-49
2023/03/20 11:52:27;;;;;;;3.47;0.70;;;;;;;;;;5029433;28;20067;-47
2023/03/20 11:54:56;;;;;;;4.43;0.90;;;;;;;;;;5033869;28;20111;-51
2023/03/20 11:57:31;;;;;;;3.92;0.93;;;;;;;;;;5029728;28;20736;-46
2023/03/20 12:00:02;;;;;;;3.67;0.80;;;;;;;;;;5031517;28;20071;-47
2023/03/20 12:02:31;;;;;;;3.20;0.60;;;;;;;;;;5029533;28;20036;-48
2023/03/20 12:04:59;;;;;;;4.95;0.82;;;;;;;;;;5034223;28;20033;-48
2023/03/20 12:07:29;;;;;;;6.15;1.25;;;;;;;;;;5035125;28;20651;-49
2023/03/20 12:09:58;;;;;;;3.60;0.75;;;;;;;;;;5022341;28;20101;-48
2023/03/20 12:12:33;;;;;;;6.23;0.90;;;;;;;;;;5030661;28;20476;-51
2023/03/20 12:15:06;;;;;;;4.95;0.93;;;;;;;;;;5035725;28;20052;-49
2023/03/20 12:17:38;;;;;;;2.58;0.40;;;;;;;;;;5013004;28;20141;-50
2023/03/20 12:20:12;;;;;;;2.53;0.40;;;;;;;;;;5032431;28;20044;-48
2023/03/20 12:22:42;;;;;;;3.05;0.52;;;;;;;;;;5030457;28;20128;-47
2023/03/20 12:25:17;;;;;;;3.70;1.00;;;;;;;;;;5031133;28;20049;-48
2023/03/20 12:27:47;;;;;;;3.90;0.88;;;;;;;;;;5017730;28;20067;-48
2023/03/20 12:30:19;;;;;;;3.40;0.63;;;;;;;;;;5033266;28;20084;-49
2023/03/20 12:32:52;;;;;;;2.75;0.32;;;;;;;;;;5026772;28;20033;-46
2023/03/20 12:35:22;;;;;;;3.20;0.60;;;;;;;;;;5021797;28;20397;-47
2023/03/20 12:37:51;;;;;;;2.90;0.60;;;;;;;;;;5023661;28;20123;-49
2023/03/20 12:40:20;;;;;;;3.70;0.70;;;;;;;;;;5036680;28;20032;-49
2023/03/20 12:42:54;;;;;;;3.92;0.50;;;;;;;;;;5039071;28;20047;-49
2023/03/20 12:45:23;;;;;;;2.40;0.43;;;;;;;;;;5006830;28;20871;-49
2023/03/20 12:47:59;;;;;;;3.70;0.60;;;;;;;;;;5024388;28;20071;-48
2023/03/20 12:50:31;;;;;;;2.47;0.57;;;;;;;;;;5013517;28;20090;-49
2023/03/20 12:53:14;;;;;;;2.42;0.50;;;;;;;;;;5030219;28;20045;-46
2023/03/20 12:55:45;;;;;;;2.90;0.50;;;;;;;;;;4679893;28;10000723;-48
2023/03/20 12:58:21;;;;;;;2.47;0.50;;;;;;;;;;5025203;28;20033;-51
2023/03/20 13:00:54;;;;;;;3.05;0.70;;;;;;;;;;5031707;28;20064;-49
2023/03/20 13:03:27;;;;;;;3.00;0.40;;;;;;;;;;5001582;28;20098;-49
2023/03/20 13:06:03;;;;;;;3.35;0.60;;;;;;;;;;5024299;28;20072;-48
2023/03/20 13:08:38;;;;;;;3.10;0.60;;;;;;;;;;5018526;28;20120;-46
2023/03/20 13:11:11;;;;;;;2.83;0.60;;;;;;;;;;5022719;28;20036;-50
2023/03/20 13:13:45;;;;;;;3.80;0.70;;;;;;;;;;5035666;28;20732;-49
2023/03/20 13:16:17;;;;;;;3.75;0.57;;;;;;;;;;5025798;28;20184;-49
2023/03/20 13:18:50;;;;;;;2.88;0.60;;;;;;;;;;5037547;28;20509;-48
2023/03/20 13:21:40;;;;;;;3.11;0.76;;;;;;;;;;5008494;28;10000603;-48
2023/03/20 13:24:14;;;;;;;2.63;0.65;;;;;;;;;;5029106;28;20719;-49
2023/03/20 13:26:44;;;;;;;2.42;0.47;;;;;;;;;;5022258;28;20101;-47
2023/03/20 13:29:17;;;;;;;3.13;0.60;;;;;;;;;;5037964;28;20140;-49
2023/03/20 13:31:53;;;;;;;2.70;0.50;;;;;;;;;;5032153;28;20460;-49
2023/03/20 13:34:24;;;;;;;2.72;0.43;;;;;;;;;;5033866;28;20082;-51
2023/03/20 13:37:01;;;;;;;2.30;0.60;;;;;;;;;;5020869;28;20045;-48
2023/03/20 13:39:52;;;;;;;2.85;0.68;;;;;;;;;;5037301;28;20566;-51
2023/03/20 13:42:21;;;;;;;2.97;0.85;;;;;;;;;;5038636;28;20091;-49
2023/03/20 13:44:51;;;;;;;2.20;0.30;;;;;;;;;;5034382;28;20041;-48
2023/03/20 13:47:23;;;;;;;2.20;0.40;;;;;;;;;;5029287;28;20045;-47
2023/03/20 13:49:54;;;;;;;2.78;0.52;;;;;;;;;;5020961;28;20118;-49
2023/03/20 13:52:22;;;;;;;2.53;0.50;;;;;;;;;;5007553;28;20037;-48
2023/03/20 13:55:00;;;;;;;2.70;0.60;;;;;;;;;;5014692;28;20127;-50
2023/03/20 13:57:37;;;;;;;2.70;0.60;;;;;;;;;;5020517;28;20037;-47
2023/03/20 14:00:08;;;;;;;2.70;0.65;;;;;;;;;;5029237;28;20148;-47
2023/03/20 14:02:48;;;;;;;3.08;0.63;;;;;;;;;;5025509;28;20120;-48
2023/03/20 14:05:17;;;;;;;3.45;0.50;;;;;;;;;;5026891;28;20146;-48
2023/03/20 14:07:46;;;;;;;2.08;0.43;;;;;;;;;;5033629;28;20053;-50
2023/03/20 14:10:30;;;;;;;2.57;0.50;;;;;;;;;;5020429;28;20991;-48
2023/03/20 14:13:00;;;;;;;2.72;0.68;;;;;;;;;;5039860;28;20048;-46
2023/03/20 14:15:32;;;;;;;2.38;0.50;;;;;;;;;;5034996;28;20514;-48
2023/03/20 14:18:04;;;;;;;2.03;0.40;;;;;;;;;;5031576;28;20483;-47
2023/03/20 14:20:33;;;;;;;2.42;0.50;;;;;;;;;;5035824;28;20543;-48
2023/03/20 14:23:01;;;;;;;2.20;0.50;;;;;;;;;;5034902;28;20443;-45
2023/03/20 14:25:32;;;;;;;3.10;0.45;;;;;;;;;;5033253;28;20465;-50
2023/03/20 14:28:00;;;;;;;2.45;0.30;;;;;;;;;;5027082;28;20119;-47
2023/03/20 14:30:39;;;;;;;3.53;0.40;;;;;;;;;;5039761;28;20489;-49
2023/03/20 14:33:24;;;;;;;2.78;0.57;;;;;;;;;;5027194;28;21370;-47
2023/03/20 14:36:12;;;;;;;2.93;0.60;;;;;;;;;;5041121;28;20087;-48
2023/03/20 14:38:44;;;;;;;2.33;0.45;;;;;;;;;;5043239;28;20036;-47
2023/03/20 14:41:17;;;;;;;3.00;0.90;;;;;;;;;;5034705;28;20885;-49
2023/03/20 14:44:00;;;;;;;3.15;0.70;;;;;;;;;;5041898;28;20032;-46
2023/03/20 14:46:32;;;;;;;3.08;0.70;;;;;;;;;;5034930;28;20068;-47
2023/03/20 14:49:03;;;;;;;3.07;0.70;;;;;;;;;;5033513;28;20111;-46
2023/03/20 14:51:37;;;;;;;3.53;0.75;;;;;;;;;;5042964;28;20064;-47
2023/03/20 14:54:24;;;;;;;3.85;1.13;;;;;;;;;;5030037;28;20449;-47
2023/03/20 14:56:52;;;;;;;3.60;0.90;;;;;;;;;;5039407;28;20071;-47
2023/03/20 14:59:21;;;;;;;2.97;0.65;;;;;;;;;;5020102;28;20040;-46
2023/03/20 15:01:54;;;;;;;2.43;0.30;;;;;;;;;;5039916;28;20041;-48
2023/03/20 15:04:25;;;;;;;2.30;0.43;;;;;;;;;;5043727;28;20132;-49
2023/03/20 15:06:55;;;;;;;3.05;0.80;;;;;;;;;;5032163;28;20033;-49
2023/03/20 15:09:25;;;;;;;3.90;0.80;;;;;;;;;;5032936;28;20068;-48
2023/03/20 15:11:53;;;;;;;4.30;0.75;;;;;;;;;;5025987;28;20483;-46
2023/03/20 15:14:24;;;;;;;2.70;0.60;;;;;;;;;;5023586;28;20040;-50
2023/03/20 15:16:56;;;;;;;2.63;0.50;;;;;;;;;;5020111;28;20122;-47
2023/03/20 15:19:25;;;;;;;2.85;0.70;;;;;;;;;;5026751;28;20128;-50
2023/03/20 15:21:55;;;;;;;2.47;0.60;;;;;;;;;;5018224;28;20500;-47
2023/03/20 15:24:23;;;;;;;3.03;0.60;;;;;;;;;;4327504;28;9999952;-47
2023/03/20 15:26:51;;;;;;;2.55;0.40;;;;;;;;;;5023278;28;20116;-49
2023/03/20 15:29:19;;;;;;;2.70;0.70;;;;;;;;;;5036342;28;20414;-48
2023/03/20 15:31:51;;;;;;;2.80;0.50;;;;;;;;;;5012134;28;20098;-47
2023/03/20 15:34:41;;;;;;;2.15;0.40;;;;;;;;;;5041390;28;20079;-47
2023/03/20 15:37:12;;;;;;;2.58;0.50;;;;;;;;;;5006971;28;20040;-50
2023/03/20 15:39:43;;;;;;;2.65;0.60;;;;;;;;;;5025260;28;21244;-48
2023/03/20 15:42:12;;;;;;;4.90;0.40;;;;;;;;;;5044819;28;20045;-47
2023/03/20 15:44:41;;;;;;;2.17;0.30;;;;;;;;;;4982464;28;20499;-46
2023/03/20 15:47:14;;;;;;;1.92;0.40;;;;;;;;;;5001193;28;20061;-46
2023/03/20 15:49:48;;;;;;;2.65;0.50;;;;;;;;;;4996117;28;20137;-46
2023/03/20 15:52:20;;;;;;;2.70;0.52;;;;;;;;;;4993568;28;20037;-47
2023/03/20 15:54:48;;;;;;;3.40;0.53;;;;;;;;;;4985733;28;20367;-47
2023/03/20 15:57:19;;;;;;;2.83;0.40;;;;;;;;;;5017246;28;20032;-48
2023/03/20 15:59:47;;;;;;;2.13;0.40;;;;;;;;;;5015948;28;20048;-47
2023/03/20 16:02:15;;;;;;;1.73;0.30;;;;;;;;;;5018664;28;20823;-48
2023/03/20 16:04:46;;;;;;;2.25;0.50;;;;;;;;;;5043320;28;20094;-49
2023/03/20 16:07:19;;;;;;;2.73;0.70;;;;;;;;;;5020383;28;20068;-49
2023/03/20 16:09:49;;;;;;;2.42;0.40;;;;;;;;;;5027511;28;20049;-50
2023/03/20 16:12:17;;;;;;;2.53;0.40;;;;;;;;;;5019749;28;20131;-46
2023/03/20 16:14:46;;;;;;;4.10;0.50;;;;;;;;;;5014475;28;20074;-46
2023/03/20 16:17:14;;;;;;;2.85;0.70;;;;;;;;;;5019407;28;20090;-46
2023/03/20 16:19:42;;;;;;;3.90;1.00;;;;;;;;;;5035011;28;20494;-46
2023/03/20 16:22:16;;;;;;;5.38;1.20;;;;;;;;;;5039321;28;20101;-49
2023/03/20 16:24:46;;;;;;;5.43;1.20;;;;;;;;;;5022996;28;20037;-45
2023/03/20 16:27:15;;;;;;;4.40;1.05;;;;;;;;;;5041899;28;20602;-46
2023/03/20 16:29:43;;;;;;;4.72;1.35;;;;;;;;;;5024886;28;20482;-47
2023/03/20 16:32:25;;;;;;;4.00;1.03;;;;;;;;;;5034873;28;20402;-47
2023/03/20 16:34:55;;;;;;;4.60;1.27;;;;;;;;;;5021682;28;20751;-48
2023/03/20 16:37:26;;;;;;;5.68;1.48;;;;;;;;;;5024817;28;20123;-49
2023/03/20 16:40:12;;;;;;;4.10;0.98;;;;;;;;;;5023825;28;20485;-46
2023/03/20 16:42:39;;;;;;;5.65;1.30;;;;;;;;;;5030652;28;20122;-49
2023/03/20 16:45:15;;;;;;;4.37;1.17;;;;;;;;;;5040710;28;20123;-47
2023/03/20 16:47:44;;;;;;;4.28;0.95;;;;;;;;;;5029502;28;20040;-46
2023/03/20 16:50:17;;;;;;;4.75;0.93;;;;;;;;;;5041939;28;20592;-48
2023/03/20 16:52:47;;;;;;;6.03;1.10;;;;;;;;;;5028966;28;20036;-48
2023/03/20 16:55:17;;;;;;;5.20;1.98;;;;;;;;;;5040318;28;20106;-47
2023/03/20 16:57:46;;;;;;;6.07;1.23;;;;;;;;;;5030618;28;20510;-46
2023/03/20 17:00:22;;;;;;;5.63;1.40;;;;;;;;;;5022102;28;20037;-47
2023/03/20 17:02:50;;;;;;;5.35;1.38;;;;;;;;;;5034136;28;20518;-46
2023/03/20 17:05:19;;;;;;;4.95;1.23;;;;;;;;;;5034117;28;20052;-47
2023/03/20 17:07:50;;;;;;;4.20;1.25;;;;;;;;;;5043512;28;20120;-48
2023/03/20 17:10:19;;;;;;;7.17;1.90;;;;;;;;;;5031586;28;20040;-47
2023/03/20 17:12:48;;;;;;;7.20;1.23;;;;;;;;;;5043309;28;20044;-48
2023/03/20 17:15:17;;;;;;;4.80;1.23;;;;;;;;;;5024387;28;20037;-48
2023/03/20 17:17:44;;;;;;;7.60;1.67;;;;;;;;;;5044582;28;20518;-47
2023/03/20 17:20:17;;;;;;;7.70;1.90;;;;;;;;;;5019534;28;20048;-48
2023/03/20 17:22:51;;;;;;;5.63;1.30;;;;;;;;;;5036257;28;20527;-47
2023/03/20 17:25:21;;;;;;;6.32;1.33;;;;;;;;;;5011050;28;20037;-48
2023/03/20 17:27:48;;;;;;;4.45;1.10;;;;;;;;;;5021214;28;20103;-45
2023/03/20 17:30:17;;;;;;;7.90;2.00;;;;;;;;;;5021496;28;20036;-47
2023/03/20 17:32:45;;;;;;;6.63;1.60;;;;;;;;;;5019895;28;20797;-49
2023/03/20 17:35:13;;;;;;;7.17;2.40;;;;;;;;;;5030174;28;20064;-46
2023/03/20 17:37:42;;;;;;;9.30;1.65;;;;;;;;;;5027880;28;20036;-48
2023/03/20 17:40:14;;;;;;;3.30;0.77;;;;;;;;;;5041123;28;20070;-48
2023/03/20 17:42:43;;;;;;;8.50;1.90;;;;;;;;;;5020245;28;20075;-47
2023/03/20 17:45:12;;;;;;;6.80;1.38;;;;;;;;;;5033438;28;20053;-49
2023/03/20 17:47:41;;;;;;;5.30;1.27;;;;;;;;;;5023819;28;20128;-49
2023/03/20 17:50:16;;;;;;;5.88;0.93;;;;;;;;;;5024364;28;20486;-46
2023/03/20 17:52:43;;;;;;;5.22;1.60;;;;;;;;;;5021669;28;20799;-48
2023/03/20 17:55:12;;;;;;;4.65;1.33;;;;;;;;;;5038783;28;20040;-45
2023/03/20 17:57:40;;;;;;;4.80;1.30;;;;;;;;;;5011664;28;20522;-47
2023/03/20 18:00:13;;;;;;;4.10;0.83;;;;;;;;;;5032803;28;20056;-49
2023/03/20 18:02:40;;;;;;;4.75;1.20;;;;;;;;;;5019888;28;20040;-47
2023/03/20 18:05:10;;;;;;;4.70;1.45;;;;;;;;;;5039317;28;20413;-46
2023/03/20 18:07:38;;;;;;;4.35;1.20;;;;;;;;;;5020786;28;20089;-46
2023/03/20 18:10:06;;;;;;;4.50;1.15;;;;;;;;;;5036548;28;20083;-50
2023/03/20 18:12:34;;;;;;;5.43;0.70;;;;;;;;;;5030032;28;20127;-48
2023/03/20 18:15:03;;;;;;;4.90;1.23;;;;;;;;;;5020337;28;20045;-45
2023/03/20 18:17:32;;;;;;;4.10;0.80;;;;;;;;;;5049831;28;20131;-47
2023/03/20 18:20:00;;;;;;;4.03;0.70;;;;;;;;;;5013345;28;20989;-48
2023/03/20 18:22:28;;;;;;;3.67;0.80;;;;;;;;;;5036761;28;20072;-48
2023/03/20 18:24:55;;;;;;;5.13;1.40;;;;;;;;;;5025101;28;20155;-47
2023/03/20 18:27:23;;;;;;;6.03;1.35;;;;;;;;;;5042646;28;20045;-46
2023/03/20 18:29:51;;;;;;;5.88;0.80;;;;;;;;;;5025140;28;20036;-46
2023/03/20 18:32:19;;;;;;;5.03;1.20;;;;;;;;;;4675996;28;9999630;-49
2023/03/20 18:34:47;;;;;;;6.07;1.30;;;;;;;;;;5028394;28;20041;-46
2023/03/20 18:37:16;;;;;;;6.85;1.65;;;;;;;;;;5007647;28;20047;-49
2023/03/20 18:39:43;;;;;;;3.45;0.70;;;;;;;;;;5025994;28;20819;-47
2023/03/20 18:42:11;;;;;;;6.80;1.60;;;;;;;;;;5027934;28;20145;-49
2023/03/20 18:44:39;;;;;;;4.53;1.33;;;;;;;;;;5012195;28;20433;-47
2023/03/20 18:47:07;;;;;;;6.32;1.67;;;;;;;;;;5024317;28;20132;-47
2023/03/20 18:49:37;;;;;;;5.13;1.52;;;;;;;;;;5017082;28;20090;-50
2023/03/20 18:52:06;;;;;;;5.32;1.75;;;;;;;;;;5033213;28;20052;-48
2023/03/20 18:54:34;;;;;;;8.00;1.95;;;;;;;;;;4992722;28;20040;-47
2023/03/20 18:57:01;;;;;;;7.07;1.93;;;;;;;;;;5026643;28;20131;-49
2023/03/20 18:59:29;;;;;;;9.52;1.98;;;;;;;;;;5017392;28;20124;-47
2023/03/20 19:01:59;;;;;;;6.30;1.50;;;;;;;;;;5027297;28;20040;-47
2023/03/20 19:04:27;;;;;;;5.75;1.60;;;;;;;;;;5028479;28;20140;-45
2023/03/20 19:06:55;;;;;;;5.15;1.13;;;;;;;;;;5006069;28;20540;-45
2023/03/20 19:09:24;;;;;;;5.80;1.20;;;;;;;;;;5029598;28;20632;-47
2023/03/20 19:11:52;;;;;;;6.22;1.90;;;;;;;;;;5034903;28;20079;-48
2023/03/20 19:14:20;;;;;;;5.53;1.52;;;;;;;;;;5016281;28;20528;-47
2023/03/20 19:16:47;;;;;;;13.93;2.10;;;;;;;;;;5013520;28;21970;-47
2023/03/20 19:19:15;;;;;;;5.78;1.52;;;;;;;;;;5027447;28;20072;-45
2023/03/20 19:21:43;;;;;;;9.57;2.07;;;;;;;;;;5010941;28;21006;-48
2023/03/20 19:24:11;;;;;;;6.20;2.05;;;;;;;;;;5020019;28;20564;-46
2023/03/20 19:26:40;;;;;;;7.22;1.90;;;;;;;;;;5016074;28;20047;-45
2023/03/20 19:29:10;;;;;;;11.55;2.38;;;;;;;;;;5011243;28;20048;-46
2023/03/20 19:31:38;;;;;;;6.35;2.42;;;;;;;;;;5015036;28;20472;-46
2023/03/20 19:34:05;;;;;;;8.20;2.00;;;;;;;;;;5033211;28;20044;-47
2023/03/20 19:36:35;;;;;;;8.95;1.85;;;;;;;;;;5000765;28;20126;-46
2023/03/20 19:39:04;;;;;;;9.63;3.17;;;;;;;;;;5044040;28;20040;-47
2023/03/20 19:41:32;;;;;;;6.13;2.03;;;;;;;;;;5013112;28;20483;-46
2023/03/20 19:44:02;;;;;;;9.25;2.60;;;;;;;;;;5015897;28;20458;-47
2023/03/20 19:46:29;;;;;;;8.90;2.13;;;;;;;;;;5009051;28;21039;-46
2023/03/20 19:49:16;;;;;;;7.07;1.95;;;;;;;;;;5023003;28;20135;-46
2023/03/20 19:51:45;;;;;;;9.77;3.28;;;;;;;;;;5027457;28;20549;-45
2023/03/20 19:54:13;;;;;;;9.40;2.47;;;;;;;;;;5020238;28;20449;-46
2023/03/20 19:56:41;;;;;;;8.80;2.35;;;;;;;;;;5042359;28;20110;-46
2023/03/20 19:59:10;;;;;;;8.63;2.60;;;;;;;;;;5019725;28;20032;-45
2023/03/20 20:01:40;;;;;;;7.72;2.80;;;;;;;;;;4682296;28;10000508;-46
2023/03/20 20:04:08;;;;;;;8.63;2.65;;;;;;;;;;5018333;28;20087;-48
2023/03/20 20:06:36;;;;;;;15.65;3.25;;;;;;;;;;5039743;28;20087;-46
2023/03/20 20:09:06;;;;;;;8.43;3.03;;;;;;;;;;5011730;28;20037;-45
2023/03/20 20:11:38;;;;;;;7.93;2.45;;;;;;;;;;5025448;28;20076;-46
2023/03/20 20:14:06;;;;;;;8.70;2.47;;;;;;;;;;5030385;28;20045;-49
2023/03/20 20:16:41;;;;;;;7.25;2.20;;;;;;;;;;5029032;28;20037;-45
2023/03/20 20:19:09;;;;;;;7.60;2.38;;;;;;;;;;5036203;28;20047;-48
2023/03/20 20:21:37;;;;;;;8.77;2.50;;;;;;;;;;5014979;28;20364;-47
2023/03/20 20:24:25;;;;;;;9.93;2.60;;;;;;;;;;5022968;28;20120;-45
2023/03/20 20:26:57;;;;;;;5.57;1.45;;;;;;;;;;5033621;28;20051;-49
2023/03/20 20:29:48;;;;;;;4.85;1.13;;;;;;;;;;4996870;28;20676;-48
2023/03/20 20:32:21;;;;;;;6.03;1.95;;;;;;;;;;5012359;28;20171;-48
2023/03/20 20:34:50;;;;;;;4.77;1.57;;;;;;;;;;5031175;28;20053;-47
2023/03/20 20:37:40;;;;;;;4.95;2.00;;;;;;;;;;5025921;28;20032;-45
2023/03/20 20:40:29;;;;;;;6.18;1.40;;;;;;;;;;5030238;28;20071;-48
2023/03/20 20:42:57;;;;;;;9.43;2.25;;;;;;;;;;5033929;28;20121;-47
2023/03/20 20:45:29;;;;;;;6.63;1.70;;;;;;;;;;5025642;28;20040;-47
2023/03/20 20:48:04;;;;;;;6.53;2.40;;;;;;;;;;5029018;28;20151;-48
2023/03/20 20:50:34;;;;;;;8.05;2.10;;;;;;;;;;5025376;28;20102;-48
2023/03/20 20:53:03;;;;;;;8.13;2.03;;;;;;;;;;5030002;28;20041;-50
2023/03/20 20:55:30;;;;;;;7.00;2.05;;;;;;;;;;4999985;28;20048;-45
2023/03/20 20:57:58;;;;;;;10.63;1.85;;;;;;;;;;5026657;28;20040;-47
2023/03/20 21:00:26;;;;;;;5.03;1.30;;;;;;;;;;5013957;28;20029;-46
2023/03/20 21:03:15;;;;;;;8.80;2.10;;;;;;;;;;5018852;28;20064;-45
2023/03/20 21:05:43;;;;;;;8.82;2.08;;;;;;;;;;5023345;28;20047;-47
2023/03/20 21:08:12;;;;;;;4.63;1.45;;;;;;;;;;5017073;28;20560;-49
2023/03/20 21:10:40;;;;;;;7.04;1.43;;;;;;;;;;4672836;28;10001728;-48
2023/03/20 21:13:08;;;;;;;7.33;1.53;;;;;;;;;;5030159;28;20124;-46
2023/03/20 21:15:35;;;;;;;5.50;1.45;;;;;;;;;;5017655;28;20041;-48
2023/03/20 21:18:03;;;;;;;7.75;1.40;;;;;;;;;;5009951;28;20088;-46
2023/03/20 21:20:33;;;;;;;5.90;1.33;;;;;;;;;;5016253;28;20479;-46
2023/03/20 21:23:01;;;;;;;6.55;1.35;;;;;;;;;;5025051;28;20607;-49
2023/03/20 21:25:29;;;;;;;4.97;0.80;;;;;;;;;;5015517;28;20116;-47
2023/03/20 21:28:14;;;;;;;4.38;1.40;;;;;;;;;;5018168;28;20045;-48
2023/03/20 21:30:42;;;;;;;7.20;1.38;;;;;;;;;;5033857;28;20032;-46
2023/03/20 21:33:30;;;;;;;7.00;1.23;;;;;;;;;;5022237;28;20498;-47
2023/03/20 21:35:59;;;;;;;5.45;1.00;;;;;;;;;;5039806;28;20506;-48
2023/03/20 21:38:27;;;;;;;4.70;1.20;;;;;;;;;;5017409;28;20417;-48
2023/03/20 21:41:19;;;;;;;5.07;1.05;;;;;;;;;;5024734;28;20162;-47
2023/03/20 21:43:47;;;;;;;7.57;1.60;;;;;;;;;;5033063;28;20037;-45
2023/03/20 21:46:14;;;;;;;4.18;0.80;;;;;;;;;;5030609;28;20037;-46
2023/03/20 21:49:02;;;;;;;9.85;1.33;;;;;;;;;;5029710;28;20048;-46
2023/03/20 21:51:53;;;;;;;7.00;2.03;;;;;;;;;;5033503;28;20072;-49
2023/03/20 21:54:40;;;;;;;6.20;1.20;;;;;;;;;;5013924;28;20048;-46
2023/03/20 21:57:28;;;;;;;4.85;1.23;;;;;;;;;;5010059;28;20048;-46
2023/03/20 22:00:16;;;;;;;9.07;1.73;;;;;;;;;;4668496;28;10000852;-48
2023/03/20 22:03:04;;;;;;;7.22;1.50;;;;;;;;;;5027315;28;20094;-45
2023/03/20 22:05:39;;;;;;;4.60;1.20;;;;;;;;;;5020967;28;20111;-45
2023/03/20 22:08:28;;;;;;;5.47;1.58;;;;;;;;;;5039801;28;20362;-46
2023/03/20 22:11:15;;;;;;;5.93;1.27;;;;;;;;;;5012388;28;20656;-46
2023/03/20 22:14:04;;;;;;;6.35;0.80;;;;;;;;;;5034357;28;20051;-47
2023/03/20 22:16:51;;;;;;;6.45;1.33;;;;;;;;;;5036885;28;20521;-46
2023/03/20 22:19:39;;;;;;;5.67;1.53;;;;;;;;;;5030906;28;20062;-46
2023/03/20 22:22:27;;;;;;;5.47;1.02;;;;;;;;;;5017299;28;20044;-49
2023/03/20 22:25:16;;;;;;;5.32;1.10;;;;;;;;;;5030084;28;20041;-46
2023/03/20 22:28:04;;;;;;;5.78;1.15;;;;;;;;;;5023950;28;20059;-50
2023/03/20 22:30:51;;;;;;;6.80;1.10;;;;;;;;;;5028217;28;20410;-45
2023/03/20 22:33:39;;;;;;;6.03;0.97;;;;;;;;;;5021905;28;20044;-47
2023/03/20 22:36:29;;;;;;;6.68;1.23;;;;;;;;;;5019397;28;20370;-46
2023/03/20 22:39:17;;;;;;;6.07;1.48;;;;;;;;;;5042680;28;20086;-47
2023/03/20 22:42:06;;;;;;;4.07;0.93;;;;;;;;;;5037169;28;20044;-47
2023/03/20 22:44:54;;;;;;;6.60;1.30;;;;;;;;;;5025503;28;20235;-47
2023/03/20 22:47:30;;;;;;;4.20;0.90;;;;;;;;;;5036849;28;20101;-44
2023/03/20 22:49:58;;;;;;;8.80;0.90;;;;;;;;;;5022270;28;20490;-47
2023/03/20 22:52:25;;;;;;;8.60;1.77;;;;;;;;;;5041795;28;20494;-47
2023/03/20 22:55:12;;;;;;;5.10;1.08;;;;;;;;;;5029420;28;20543;-49
2023/03/20 22:57:41;;;;;;;7.20;0.90;;;;;;;;;;5024624;28;20045;-47
2023/03/20 23:00:29;;;;;;;8.00;1.63;;;;;;;;;;5026017;28;20048;-50
2023/03/20 23:02:57;;;;;;;3.60;0.80;;;;;;;;;;5031487;28;20414;-47
2023/03/20 23:05:42;;;;;;;5.03;1.27;;;;;;;;;;5018391;28;21631;-47
2023/03/20 23:08:10;;;;;;;6.35;1.05;;;;;;;;;;5023196;28;20044;-48
2023/03/20 23:10:41;;;;;;;6.20;1.00;;;;;;;;;;5023741;28;20037;-49
2023/03/20 23:13:11;;;;;;;5.57;0.90;;;;;;;;;;5029056;28;20087;-48
2023/03/20 23:15:38;;;;;;;5.28;1.00;;;;;;;;;;5007481;28;20127;-47
2023/03/20 23:18:06;;;;;;;5.65;1.00;;;;;;;;;;5047360;28;20559;-47
2023/03/20 23:20:34;;;;;;;8.90;1.10;;;;;;;;;;5022943;28;20423;-46
2023/03/20 23:23:02;;;;;;;5.40;1.10;;;;;;;;;;5035992;28;20113;-47
2023/03/20 23:25:30;;;;;;;4.07;0.87;;;;;;;;;;5015302;28;20728;-49
2023/03/20 23:28:06;;;;;;;9.10;1.35;;;;;;;;;;5023224;28;20401;-45
2023/03/20 23:30:35;;;;;;;6.25;1.17;;;;;;;;;;5012800;28;20391;-46
2023/03/20 23:33:18;;;;;;;8.50;1.00;;;;;;;;;;5014304;28;20039;-47
2023/03/20 23:35:47;;;;;;;12.02;1.60;;;;;;;;;;5028517;28;20098;-46
2023/03/20 23:38:17;;;;;;;4.87;0.90;;;;;;;;;;5006513;28;20076;-46
2023/03/20 23:40:48;;;;;;;6.18;1.05;;;;;;;;;;5037802;28;20127;-46
2023/03/20 23:43:15;;;;;;;4.03;0.95;;;;;;;;;;5006661;28;20681;-48
2023/03/20 23:45:45;;;;;;;6.13;1.38;;;;;;;;;;5042644;28;20048;-47